Dobrodošli na spletni strani vremenske postaje Senovo. Vse informacije so informativnega značaja, saj vremenska postaja ni del državne mreže meteoroloških postaj. AKTUALNIH OBVESTIL NI.


Sneg/Led Od: 21-02-2018 00:00 Do: 23-02-2018 23:59 Opozorilo za: Sneg/Led Stopnja: Rumena info button
Veter Od: 21-02-2018 00:00 Do: 22-02-2018 23:59 Opozorilo za: Veter Stopnja: Rumena info button

Pogled proti Armezu več informacij Pogled proti Armezu


Lisca več informacij Lisca


Radar strel več informacij blitzortung!


opozorilo za sneg/led več informacij rain snow radar


Obiščite še:

Template documentation
and downloads

And another site



Weather Underground, zgodovina - Tekstovno

Dnevni povzetek za December 19, 2017 Enote:  Angleško    Metrično   Obe
« Predhodni Dan
Naslednji Dan »
Dnevni Tedenski Mesečni Letni Po meri
  Višja: Nižja: Povprečje:
Temperatura: TemperatureC °F -5.5 °F -3.5 °F
Točka rosišča: DewpointC °F -6.6 °F -4.7 °F
Vlažnost: Humidity % 0 % 91 %
Hitrost vetra: WindSpeedKMH mph 0.0 mph 0.9 mph
Sunki vetra: WindSpeedGustKMH mph - -
Veter:- - SSW
Zračni tlak: PressurehPa in 0.0 in -
Padavine: 0.0 in    
Historical Graphs
 
 
Tabelarni podarki za December 19, 2017
Čas Temperatura Točka rosišča Zračni tlak Veter Hitrost vetra Sunki vetra Vlažnost Intenziteta padavin (urna)
TemperatureC °F DewpointC °F PressurehPa in Calm     Humidity % HourlyPrecipMM in
00:00 -4.7 °F -6.1 °F 1027.0 in Calm     90 % 0.0 in
00:03 -4.7 °F -6.1 °F 1027.0 in Calm     90 % 0.0 in
00:05 -4.7 °F -6.1 °F 1027.0 in Calm     90 % 0.0 in
00:07 -4.7 °F -6.1 °F 1027.0 in Calm     90 % 0.0 in
00:12 -4.7 °F -6.1 °F 1027.0 in Calm     90 % 0.0 in
00:13 -4.7 °F -6.1 °F 1027.0 in Calm     90 % 0.0 in
00:18 -4.7 °F -6.1 °F 1026.0 in Calm     90 % 0.0 in
00:19 -4.7 °F -6.1 °F 1026.0 in Calm     90 % 0.0 in
00:24 -4.7 °F -6.1 °F 1026.0 in Calm     90 % 0.0 in
00:25 -4.7 °F -6.1 °F 1026.0 in Calm     90 % 0.0 in
00:30 -4.7 °F -6.1 °F 1026.0 in Calm     90 % 0.0 in
00:31 -4.7 °F -6.1 °F 1026.0 in Calm     90 % 0.0 in
00:35 -4.7 °F -6.1 °F 1026.0 in Calm     90 % 0.0 in
00:38 -4.7 °F -6.1 °F 1026.0 in Calm     90 % 0.0 in
00:41 -4.7 °F -5.9 °F 1026.0 in Calm     91 % 0.0 in
00:46 -4.7 °F -5.9 °F 1027.0 in Calm     91 % 0.0 in
00:49 -4.7 °F -5.9 °F 1027.0 in Calm     91 % 0.0 in
00:54 -4.7 °F -5.9 °F 1027.0 in Calm     91 % 0.0 in
00:58 -4.7 °F -5.9 °F 1027.0 in Calm     91 % 0.0 in
00:59 -4.7 °F -5.9 °F 1027.0 in Calm     91 % 0.0 in
01:04 -4.7 °F -5.9 °F 1027.0 in Calm     91 % 0.0 in
01:09 -4.7 °F -5.9 °F 1027.0 in Calm     91 % 0.0 in
01:12 -4.7 °F -5.9 °F 1027.0 in Calm     91 % 0.0 in
01:16 -4.7 °F -5.9 °F 1027.0 in Calm     91 % 0.0 in
01:21 -4.7 °F -5.9 °F 1027.0 in Calm     91 % 0.0 in
01:22 -4.7 °F -5.9 °F 1027.0 in Calm     91 % 0.0 in
01:24 -4.7 °F -5.9 °F 1027.0 in Calm     91 % 0.0 in
01:29 -4.7 °F -5.9 °F 1027.0 in Calm     91 % 0.0 in
01:34 -4.7 °F -5.9 °F 1027.0 in Calm     91 % 0.0 in
01:41 -4.8 °F -6.1 °F 1027.0 in NNW 0.5 mph 2.6 mph 91 % 0.0 in
01:44 -4.8 °F -6.1 °F 1027.0 in NNW 0.5 mph 2.6 mph 91 % 0.0 in
01:48 -4.8 °F -6.1 °F 1027.0 in NNW 0.5 mph 2.6 mph 91 % 0.0 in
01:51 -4.8 °F -6.1 °F 1027.0 in North 0.2 mph   91 % 0.0 in
01:56 -4.8 °F -6.1 °F 1027.0 in Calm   2.1 mph 91 % 0.0 in
02:01 -4.8 °F -6.1 °F 1027.0 in NNW 0.2 mph 2.1 mph 91 % 0.0 in
02:04 -4.8 °F -6.1 °F 1027.0 in NNW 0.3 mph 3.2 mph 91 % 0.0 in
02:09 -4.8 °F -6.1 °F 1027.0 in NNW 0.3 mph 3.2 mph 91 % 0.0 in
02:10 -4.8 °F -6.1 °F 1027.0 in NNW 0.3 mph 3.2 mph 91 % 0.0 in
02:15 -4.8 °F -6.1 °F 1028.0 in NW 0.3 mph 3.2 mph 91 % 0.0 in
02:16 -4.8 °F -6.1 °F 1028.0 in NW 0.5 mph 3.2 mph 91 % 0.0 in
02:21 -4.9 °F -6.2 °F 1028.0 in NW 0.5 mph 3.2 mph 91 % 0.0 in
02:22 -4.9 °F -6.2 °F 1028.0 in NW 0.3 mph 3.2 mph 91 % 0.0 in
02:24 -4.9 °F -6.2 °F 1028.0 in NW 0.3 mph 3.2 mph 91 % 0.0 in
02:29 -5.0 °F -6.1 °F 1028.0 in SW 0.2 mph 4.3 mph 92 % 0.0 in
02:31 -5.0 °F -6.1 °F 1028.0 in SW 0.8 mph 4.3 mph 92 % 0.0 in
02:36 -5.0 °F -6.1 °F 1028.0 in SW 1.6 mph 4.3 mph 92 % 0.0 in
02:38 -5.0 °F -6.1 °F 1028.0 in SW 1.4 mph 4.3 mph 92 % 0.0 in
02:39 -5.0 °F -6.1 °F 1028.0 in SW 1.3 mph 4.0 mph 92 % 0.0 in
02:44 -5.0 °F -6.1 °F 1028.0 in Calm     92 % 0.0 in
02:49 0.0 °F 0.1 °F 1028.0 in Calm     0 % 0.0 in
02:52 -5.1 °F -6.2 °F 1028.0 in Calm   1.8 mph 92 % 0.0 in
02:57 -5.1 °F -6.2 °F 1028.0 in NNW 0.3 mph 3.2 mph 92 % 0.0 in
02:58 -5.1 °F -6.2 °F 1028.0 in NNW 0.2 mph 3.2 mph 92 % 0.0 in
03:03 -5.0 °F -6.1 °F 1028.0 in NNW 0.2 mph 2.1 mph 92 % 0.0 in
03:04 -5.0 °F -6.1 °F 1028.0 in Calm     92 % 0.0 in
03:05 -5.0 °F -6.1 °F 1028.0 in Calm     92 % 0.0 in
03:10 -5.0 °F -6.1 °F 1028.0 in Calm     92 % 0.0 in
03:11 -5.0 °F -6.1 °F 1028.0 in Calm     92 % 0.0 in
03:13 -4.9 °F -6.2 °F 1028.0 in Calm     91 % 0.0 in
03:17 -4.9 °F -6.2 °F 1028.0 in Calm     91 % 0.0 in
03:22 -4.9 °F -6.0 °F 1028.0 in Calm     92 % 0.0 in
03:23 -4.8 °F -5.9 °F 1028.0 in Calm     92 % 0.0 in
03:28 -4.8 °F -5.9 °F 1028.0 in Calm     92 % 0.0 in
03:30 -4.8 °F -5.9 °F 1028.0 in Calm     92 % 0.0 in
03:32 -4.8 °F -5.9 °F 1028.0 in Calm     92 % 0.0 in
03:36 -4.7 °F -5.8 °F 1028.0 in Calm     92 % 0.0 in
03:37 -4.7 °F -5.8 °F 1028.0 in Calm     92 % 0.0 in
03:42 -4.7 °F -5.8 °F 1028.0 in Calm     92 % 0.0 in
03:43 -4.7 °F -5.8 °F 1028.0 in Calm     92 % 0.0 in
03:48 -4.7 °F -5.8 °F 1028.0 in Calm     92 % 0.0 in
03:53 -4.7 °F -5.8 °F 1028.0 in Calm     92 % 0.0 in
03:55 -4.7 °F -5.8 °F 1028.0 in Calm   3.5 mph 92 % 0.0 in
03:58 -4.7 °F -5.8 °F 1028.0 in ESE 0.5 mph 3.5 mph 92 % 0.0 in
04:03 -4.7 °F -5.8 °F 1029.0 in ENE 1.0 mph 3.5 mph 92 % 0.0 in
04:06 -4.8 °F -5.9 °F 1029.0 in NNE 1.0 mph 4.3 mph 92 % 0.0 in
04:11 -4.8 °F -5.9 °F 1029.0 in NNE 1.3 mph 4.3 mph 92 % 0.0 in
04:15 -4.9 °F -6.0 °F 1028.0 in NE 1.6 mph 4.3 mph 92 % 0.0 in
04:16 -4.9 °F -6.0 °F 1028.0 in ENE 1.3 mph 3.5 mph 92 % 0.0 in
04:21 -4.9 °F -6.0 °F 1028.0 in ESE 0.6 mph 3.2 mph 92 % 0.0 in
04:24 -4.9 °F -6.0 °F 1028.0 in SE 0.2 mph 2.6 mph 92 % 0.0 in
04:27 -4.9 °F -6.0 °F 1028.0 in SE 0.2 mph 2.6 mph 92 % 0.0 in
04:32 -4.9 °F -6.0 °F 1028.0 in ESE 0.3 mph 4.0 mph 92 % 0.0 in
04:33 -4.9 °F -6.0 °F 1028.0 in East 0.8 mph 4.0 mph 92 % 0.0 in
04:38 -4.9 °F -6.0 °F 0.0 in East 2.6 mph 2.6 mph 92 % 0.0 in
04:39 -4.9 °F -6.0 °F 1028.0 in East 2.4 mph 2.6 mph 92 % 0.0 in
04:44 -4.9 °F -6.0 °F 1029.0 in East 1.0 mph 2.6 mph 92 % 0.0 in
04:45 -4.9 °F -6.0 °F 1029.0 in East 1.0 mph 2.6 mph 92 % 0.0 in
04:47 -4.9 °F -6.0 °F 1029.0 in ESE 0.8 mph 3.2 mph 92 % 0.0 in
04:51 -4.9 °F -6.0 °F 1029.0 in SW 1.9 mph 4.7 mph 92 % 0.0 in
04:54 -4.9 °F -6.0 °F 1029.0 in SW 2.7 mph 4.7 mph 92 % 0.0 in
04:59 -5.0 °F -5.9 °F 1029.0 in SW 3.2 mph 4.7 mph 93 % 0.0 in
05:04 -5.0 °F -6.1 °F 1029.0 in West 2.1 mph 4.7 mph 92 % 0.0 in
05:07 -5.1 °F -6.2 °F 1029.0 in WNW 1.4 mph 4.7 mph 92 % 0.0 in
05:08 -5.1 °F -6.2 °F 1029.0 in NW 1.3 mph 4.7 mph 92 % 0.0 in
05:13 -5.1 °F -6.2 °F 1029.0 in NW 0.3 mph 1.8 mph 92 % 0.0 in
05:14 -5.1 °F -6.2 °F 1029.0 in Calm     92 % 0.0 in
05:18 -5.1 °F -6.2 °F 1029.0 in Calm     92 % 0.0 in
05:23 -5.1 °F -6.2 °F 1029.0 in West 0.2 mph 2.6 mph 92 % 0.0 in
05:24 -5.1 °F -6.2 °F 1029.0 in West 0.3 mph 4.0 mph 92 % 0.0 in
05:25 -5.1 °F -6.2 °F 1029.0 in West 0.6 mph 4.3 mph 92 % 0.0 in
05:29 -5.2 °F -6.3 °F 1030.0 in West 2.1 mph 4.7 mph 92 % 0.0 in
05:34 -5.2 °F -6.3 °F 1030.0 in West 2.6 mph 4.7 mph 92 % 0.0 in
05:35 -5.2 °F -6.3 °F 1030.0 in West 2.6 mph 4.7 mph 92 % 0.0 in
05:38 -5.3 °F -6.4 °F 1030.0 in West 1.1 mph 4.0 mph 92 % 0.0 in
05:41 -5.3 °F -6.4 °F 1030.0 in West 0.5 mph 2.6 mph 92 % 0.0 in
05:46 -5.3 °F -6.4 °F 1029.0 in NW 0.3 mph 4.0 mph 92 % 0.0 in
05:52 -5.3 °F -6.4 °F 1029.0 in NW 0.3 mph 4.0 mph 92 % 0.0 in
05:56 -5.3 °F -6.4 °F 1029.0 in NNW 0.2 mph 3.2 mph 92 % 0.0 in
06:01 -5.4 °F -6.5 °F 1028.0 in North 0.5 mph 3.2 mph 92 % 0.0 in
06:02 -5.4 °F -6.5 °F 1028.0 in North 0.6 mph 3.2 mph 92 % 0.0 in
06:07 -5.4 °F -6.5 °F 1028.0 in North 1.1 mph 3.5 mph 92 % 0.0 in
06:08 -5.4 °F -6.5 °F 1028.0 in North 1.3 mph 3.5 mph 92 % 0.0 in
06:13 -5.4 °F -6.5 °F 1028.0 in NNE 1.6 mph 4.0 mph 92 % 0.0 in
06:14 -5.5 °F -6.6 °F 1028.0 in NNE 1.9 mph 4.3 mph 92 % 0.0 in
06:20 0.0 °F 0.1 °F 0.0 in ENE 3.2 mph 4.0 mph 0 % 0.0 in
06:22 -5.5 °F -6.6 °F 1028.0 in ENE 2.6 mph 4.0 mph 92 % 0.0 in
06:27 -5.4 °F -6.5 °F 1028.0 in ENE 2.4 mph 4.0 mph 92 % 0.0 in
06:30 -5.4 °F -6.5 °F 1029.0 in ENE 1.9 mph 4.0 mph 92 % 0.0 in
06:35 -5.3 °F -6.3 °F 1029.0 in ESE 1.6 mph 3.5 mph 93 % 0.0 in
06:37 -5.3 °F -6.3 °F 1029.0 in SE 1.6 mph 4.0 mph 93 % 0.0 in
06:42 -5.2 °F -6.2 °F 1029.0 in ESE 1.8 mph 4.0 mph 93 % 0.0 in
06:44 -5.2 °F -6.2 °F 1029.0 in ESE 1.4 mph 4.0 mph 93 % 0.0 in
06:46 -5.2 °F -6.2 °F 1029.0 in East 1.3 mph 4.7 mph 93 % 0.0 in
06:49 -5.2 °F -6.2 °F 1029.0 in ENE 1.6 mph 4.7 mph 93 % 0.0 in
06:54 -5.2 °F -6.2 °F 1029.0 in ENE 1.9 mph 4.7 mph 93 % 0.0 in
06:58 -5.2 °F -6.2 °F 1029.0 in ENE 1.4 mph 3.5 mph 93 % 0.0 in
07:01 -5.1 °F -6.1 °F 1029.0 in NE 0.6 mph 3.5 mph 93 % 0.0 in
07:06 -5.1 °F -6.1 °F 1029.0 in NNE 1.0 mph 4.0 mph 93 % 0.0 in
07:10 -5.1 °F -6.1 °F 1029.0 in North 0.8 mph 4.0 mph 93 % 0.0 in
07:13 -5.1 °F -6.1 °F 1029.0 in North 0.8 mph 4.3 mph 93 % 0.0 in
07:19 -5.1 °F -6.1 °F 1030.0 in North 1.3 mph 4.7 mph 93 % 0.0 in
07:21 -5.1 °F -6.1 °F 1030.0 in North 1.0 mph 4.7 mph 93 % 0.0 in
07:26 -5.1 °F -6.1 °F 1030.0 in NNW 0.6 mph 2.6 mph 93 % 0.0 in
07:29 -5.1 °F -6.1 °F 1031.0 in NE 1.4 mph 5.0 mph 93 % 0.0 in
07:32 -5.1 °F -6.1 °F 1031.0 in NE 2.3 mph 5.0 mph 93 % 0.0 in
07:37 -5.1 °F -6.1 °F 1031.0 in ENE 2.1 mph 5.0 mph 93 % 0.0 in
07:42 -5.1 °F -6.1 °F 1031.0 in ENE 1.3 mph 4.7 mph 93 % 0.0 in
07:44 -5.1 °F -6.1 °F 1031.0 in ENE 1.1 mph 4.7 mph 93 % 0.0 in
07:48 -5.1 °F -6.1 °F 1031.0 in ENE 1.1 mph 4.7 mph 93 % 0.0 in
07:49 -5.1 °F -6.1 °F 1031.0 in ENE 1.1 mph 4.7 mph 93 % 0.0 in
07:54 -5.0 °F -5.9 °F 1031.0 in ENE 0.2 mph 2.1 mph 93 % 0.0 in
07:59 -4.9 °F -5.8 °F 1031.0 in ESE 0.6 mph 4.3 mph 93 % 0.0 in
08:04 -4.9 °F -5.8 °F 1031.0 in East 1.9 mph 4.3 mph 93 % 0.0 in
08:05 -4.9 °F -5.8 °F 1031.0 in East 2.1 mph 4.7 mph 93 % 0.0 in
08:08 -4.9 °F -5.8 °F 1031.0 in East 2.6 mph 4.7 mph 93 % 0.0 in
08:11 -4.9 °F -5.8 °F 1031.0 in East 2.4 mph 4.7 mph 93 % 0.0 in
08:16 -4.8 °F -5.8 °F 1030.0 in ESE 1.8 mph 4.0 mph 93 % 0.0 in
08:17 -4.8 °F -5.8 °F 1030.0 in ESE 1.8 mph 4.0 mph 93 % 0.0 in
08:20 -4.7 °F -5.7 °F 1030.0 in ESE 1.8 mph 4.0 mph 93 % 0.0 in
08:22 -4.7 °F -5.7 °F 1030.0 in ESE 1.6 mph 4.0 mph 93 % 0.0 in
08:27 -4.7 °F -5.7 °F 1030.0 in East 1.4 mph 4.0 mph 93 % 0.0 in
08:29 -4.7 °F -5.7 °F 1030.0 in East 1.1 mph 4.0 mph 93 % 0.0 in
08:33 -4.7 °F -5.7 °F 1030.0 in ESE 1.3 mph 4.3 mph 93 % 0.0 in
08:34 -4.6 °F -5.6 °F 1030.0 in ESE 1.3 mph 4.3 mph 93 % 0.0 in
08:39 -4.6 °F -5.6 °F 1030.0 in ESE 1.1 mph 4.3 mph 93 % 0.0 in
08:42 -4.5 °F -5.3 °F 1030.0 in Calm     94 % 0.0 in
08:44 -4.5 °F -5.3 °F 1030.0 in NW 0.3 mph 3.5 mph 94 % 0.0 in
08:49 -4.5 °F -5.3 °F 1030.0 in NW 0.3 mph 3.5 mph 94 % 0.0 in
08:52 -4.4 °F -5.2 °F 1030.0 in NW 0.5 mph 4.3 mph 94 % 0.0 in
08:57 -4.4 °F -5.2 °F 1030.0 in NW 1.0 mph 4.3 mph 94 % 0.0 in
09:01 -4.4 °F -5.2 °F 1031.0 in NW 1.8 mph 4.3 mph 94 % 0.0 in
09:05 -4.4 °F -5.2 °F 1031.0 in NW 1.3 mph 4.0 mph 94 % 0.0 in
09:10 -4.3 °F -5.1 °F 1031.0 in NW 1.4 mph 3.5 mph 94 % 0.0 in
09:12 -4.3 °F -5.1 °F 1031.0 in NW 1.0 mph 3.5 mph 94 % 0.0 in
09:17 -4.2 °F -5.0 °F 1031.0 in NNW 1.8 mph 4.7 mph 94 % 0.0 in
09:19 -4.2 °F -5.0 °F 1031.0 in NNW 1.8 mph 4.7 mph 94 % 0.0 in
09:20 -4.2 °F -5.0 °F 1031.0 in NNW 1.6 mph 4.7 mph 94 % 0.0 in
09:25 -4.2 °F -5.0 °F 1031.0 in North 1.3 mph 4.7 mph 94 % 0.0 in
09:26 -4.1 °F -4.9 °F 1031.0 in NNW 1.0 mph 4.7 mph 94 % 0.0 in
09:31 -4.1 °F -4.9 °F 1031.0 in NNW 0.6 mph 5.5 mph 94 % 0.0 in
09:33 -4.1 °F -4.9 °F 1031.0 in NW 1.3 mph 5.5 mph 94 % 0.0 in
09:38 -4.0 °F -4.8 °F 1031.0 in WNW 2.7 mph 6.9 mph 94 % 0.0 in
09:39 -4.0 °F -4.8 °F 1031.0 in West 2.6 mph 6.9 mph 94 % 0.0 in
09:42 -4.0 °F -4.8 °F 1031.0 in WNW 2.4 mph 6.9 mph 94 % 0.0 in
09:47 -3.9 °F -4.7 °F 1032.1 in South 0.2 mph 2.6 mph 94 % 0.0 in
09:48 -3.8 °F -4.6 °F 1032.1 in Calm   2.6 mph 94 % 0.0 in
09:53 -3.8 °F -4.6 °F 1032.1 in Calm   2.1 mph 94 % 0.0 in
09:55 -3.8 °F -4.6 °F 1032.1 in Calm   2.1 mph 94 % 0.0 in
09:57 -3.7 °F -4.5 °F 1032.1 in Calm   2.1 mph 94 % 0.0 in
10:02 -3.6 °F -4.4 °F 1031.0 in NNE 0.2 mph 3.2 mph 94 % 0.0 in
10:03 -3.6 °F -4.4 °F 1031.0 in NNE 0.3 mph 3.2 mph 94 % 0.0 in
10:06 -3.6 °F -4.4 °F 1031.0 in NNE 0.3 mph 3.2 mph 94 % 0.0 in
10:10 -3.5 °F -4.3 °F 1031.0 in NNE 0.3 mph 3.2 mph 94 % 0.0 in
10:15 -3.5 °F -4.3 °F 1032.1 in SW 1.3 mph 4.3 mph 94 % 0.0 in
10:18 -3.4 °F -4.2 °F 1032.1 in WSW 1.4 mph 4.3 mph 94 % 0.0 in
10:23 -3.3 °F -4.1 °F 1032.1 in WSW 0.6 mph 3.2 mph 94 % 0.0 in
10:28 -3.3 °F -4.1 °F 1032.1 in South 0.6 mph 4.3 mph 94 % 0.0 in
10:29 -3.3 °F -4.1 °F 1032.1 in South 0.8 mph 4.3 mph 94 % 0.0 in
10:34 -3.2 °F -4.1 °F 1032.1 in SSW 1.3 mph 4.3 mph 94 % 0.0 in
10:35 -3.2 °F -4.1 °F 1032.1 in SW 1.4 mph 5.0 mph 94 % 0.0 in
10:40 -3.1 °F -3.9 °F 1032.1 in SSW 2.7 mph 5.8 mph 94 % 0.0 in
10:42 -3.1 °F -3.9 °F 1032.1 in SSW 2.7 mph 5.8 mph 94 % 0.0 in
10:44 -3.0 °F -3.8 °F 1032.1 in SSW 2.4 mph 5.8 mph 94 % 0.0 in
10:48 -3.0 °F -3.8 °F 1032.1 in South 1.0 mph 4.0 mph 94 % 0.0 in
10:53 -2.9 °F -3.7 °F 1032.1 in South 0.2 mph 2.6 mph 94 % 0.0 in
10:58 -2.8 °F -3.6 °F 1032.1 in SW 1.9 mph 5.5 mph 94 % 0.0 in
11:00 -2.8 °F -3.6 °F 1031.0 in SSW 2.3 mph 5.5 mph 94 % 0.0 in
11:01 -2.8 °F -3.6 °F 1031.0 in SSW 2.7 mph 5.5 mph 94 % 0.0 in
11:06 -2.8 °F -3.6 °F 1031.0 in East 2.1 mph 4.3 mph 94 % 0.0 in
11:07 -2.7 °F -3.6 °F 1031.0 in East 1.9 mph 4.3 mph 94 % 0.0 in
11:11 -2.7 °F -3.6 °F 1031.0 in ENE 1.6 mph 5.5 mph 94 % 0.0 in
11:16 -2.6 °F -3.4 °F 1031.0 in ENE 1.8 mph 5.5 mph 94 % 0.0 in
11:21 -2.4 °F -3.1 °F 1031.0 in West 0.6 mph 4.0 mph 95 % 0.0 in
11:26 -2.4 °F -3.1 °F 1031.0 in ENE 0.5 mph 3.2 mph 95 % 0.0 in
11:28 -2.4 °F -3.1 °F 1031.0 in ENE 0.6 mph 3.2 mph 95 % 0.0 in
11:33 -2.3 °F -3.0 °F 1031.0 in SSE 0.8 mph 3.2 mph 95 % 0.0 in
11:34 -2.3 °F -3.0 °F 1031.0 in SSE 0.3 mph 3.2 mph 95 % 0.0 in
11:37 -2.2 °F -2.9 °F 1031.0 in SSW 0.6 mph 3.2 mph 95 % 0.0 in
11:39 -2.2 °F -2.9 °F 1031.0 in SSW 0.6 mph 3.2 mph 95 % 0.0 in
11:44 -2.2 °F -2.9 °F 1030.0 in NE 0.3 mph 2.6 mph 95 % 0.0 in
11:46 -2.1 °F -2.8 °F 1030.0 in South 0.2 mph 4.3 mph 95 % 0.0 in
11:49 -2.0 °F -2.7 °F 1030.0 in South 0.2 mph 4.3 mph 95 % 0.0 in
11:54 -1.9 °F -2.7 °F 1030.0 in SE 1.0 mph 4.3 mph 94 % 0.0 in
11:56 -1.9 °F -2.7 °F 1030.0 in SE 1.1 mph 4.3 mph 94 % 0.0 in
11:58 -1.8 °F -2.6 °F 1030.0 in ESE 1.4 mph 4.0 mph 94 % 0.0 in
12:03 -1.7 °F -2.4 °F 1030.0 in East 1.9 mph 4.7 mph 95 % 0.0 in
12:04 -1.7 °F -2.4 °F 1030.0 in East 2.3 mph 4.7 mph 95 % 0.0 in
12:09 -1.7 °F -2.4 °F 1030.0 in ENE 1.8 mph 3.5 mph 95 % 0.0 in
12:10 -1.7 °F -2.4 °F 1030.0 in ENE 1.6 mph 3.5 mph 95 % 0.0 in
12:14 -1.5 °F -2.2 °F 1031.0 in North 0.6 mph 3.2 mph 95 % 0.0 in
12:19 -1.4 °F -2.1 °F 1031.0 in Calm   1.4 mph 95 % 0.0 in
12:20 -1.4 °F -2.1 °F 1031.0 in Calm   1.4 mph 95 % 0.0 in
12:21 -1.4 °F -2.1 °F 1031.0 in Calm   1.4 mph 95 % 0.0 in
12:26 -1.3 °F -2.0 °F 1031.0 in SE 0.5 mph 3.2 mph 95 % 0.0 in
12:27 -1.3 °F -2.0 °F 1031.0 in SE 0.6 mph 3.2 mph 95 % 0.0 in
12:31 -1.2 °F -1.9 °F 1031.0 in SE 1.1 mph 3.2 mph 95 % 0.0 in
12:32 -1.2 °F -1.9 °F 1031.0 in SSE 1.0 mph 3.2 mph 95 % 0.0 in
12:37 -1.1 °F -1.8 °F 1031.0 in SE 1.1 mph 4.3 mph 95 % 0.0 in
12:39 -1.0 °F -1.7 °F 1031.0 in ESE 1.3 mph 4.3 mph 95 % 0.0 in
12:40 -1.0 °F -1.7 °F 1031.0 in ESE 1.3 mph 4.3 mph 95 % 0.0 in
12:45 -0.9 °F -1.6 °F 1031.0 in ESE 2.1 mph 4.3 mph 95 % 0.0 in
12:46 0.0 °F 0.0 °F 1031.0 in SSW 2.9 mph 5.5 mph 0 % 0.0 in
12:51 -0.7 °F -1.4 °F 1031.0 in ESE 0.3 mph 2.1 mph 95 % 0.0 in
12:52 -0.7 °F -1.4 °F 1031.0 in ESE 0.3 mph 2.6 mph 95 % 0.0 in
12:55 -0.6 °F -1.3 °F 1031.0 in ESE 0.6 mph 2.6 mph 95 % 0.0 in
13:00 -0.6 °F -1.3 °F 1031.0 in SE 0.6 mph 2.6 mph 95 % 0.0 in
13:02 -0.6 °F -1.3 °F 1031.0 in SE 0.5 mph 2.6 mph 95 % 0.0 in
13:04 -0.6 °F -1.3 °F 1031.0 in SE 0.2 mph 1.8 mph 95 % 0.0 in
13:08 -0.5 °F -1.2 °F 1031.0 in Calm     95 % 0.0 in
13:13 -0.5 °F -1.2 °F 1031.0 in South 2.1 mph 4.0 mph 95 % 0.0 in
13:14 -0.5 °F -1.2 °F 1030.0 in South 2.6 mph 4.0 mph 95 % 0.0 in
13:19 -0.5 °F -1.2 °F 1030.0 in South 1.9 mph 4.3 mph 95 % 0.0 in
13:21 -0.4 °F -1.1 °F 1030.0 in South 1.4 mph 4.3 mph 95 % 0.0 in
13:26 -0.3 °F -1.0 °F 1030.0 in SSE 1.0 mph 3.5 mph 95 % 0.0 in
13:27 -0.3 °F -1.0 °F 1030.0 in SSE 1.1 mph 3.5 mph 95 % 0.0 in
13:29 -0.3 °F -1.0 °F 1030.0 in SSE 1.4 mph 3.5 mph 95 % 0.0 in
13:32 -0.2 °F -0.9 °F 1030.0 in South 1.1 mph 3.5 mph 95 % 0.0 in
13:37 -0.1 °F -0.8 °F 1030.0 in South 1.4 mph 4.7 mph 95 % 0.0 in
13:38 -0.1 °F -0.8 °F 1030.0 in South 1.4 mph 4.7 mph 95 % 0.0 in
13:39 -0.1 °F -0.8 °F 1030.0 in South 1.6 mph 4.7 mph 95 % 0.0 in
13:44 0.1 °F -0.6 °F 1030.0 in SSW 3.2 mph 5.8 mph 95 % 0.0 in
13:46 0.1 °F -0.6 °F 1030.0 in SW 3.1 mph 5.8 mph 95 % 0.0 in
13:48 0.1 °F -0.6 °F 1030.0 in SW 2.9 mph 5.8 mph 95 % 0.0 in
13:53 0.3 °F -0.4 °F 1030.0 in SSW 3.1 mph 5.5 mph 95 % 0.0 in
13:55 0.3 °F -0.4 °F 1030.0 in SSW 3.2 mph 5.5 mph 95 % 0.0 in
14:00 0.4 °F -0.3 °F 1030.0 in South 3.7 mph 6.4 mph 95 % 0.0 in
14:05 0.6 °F -0.1 °F 1030.0 in South 4.5 mph 7.6 mph 95 % 0.0 in
14:07 0.6 °F -0.1 °F 1030.0 in SSW 4.7 mph 7.6 mph 95 % 0.0 in
14:12 0.9 °F 0.2 °F 1030.0 in SSW 4.2 mph 7.6 mph 95 % 0.0 in
14:15 1.0 °F 0.3 °F 1030.0 in SSW 4.3 mph 7.6 mph 95 % 0.0 in
14:18 1.0 °F 0.2 °F 1030.0 in SSW 4.5 mph 7.6 mph 94 % 0.0 in
14:23 1.0 °F 0.2 °F 1030.0 in SSW 4.2 mph 6.1 mph 94 % 0.0 in
14:26 1.0 °F 0.2 °F 1030.0 in SSW 4.0 mph 6.9 mph 94 % 0.0 in
14:31 1.0 °F 0.2 °F 1030.0 in SSW 4.8 mph 8.7 mph 94 % 0.0 in
14:33 1.1 °F 0.2 °F 1030.0 in SSW 5.3 mph 8.7 mph 94 % 0.0 in
14:38 1.1 °F 0.2 °F 1030.0 in SSW 4.8 mph 6.9 mph 94 % 0.0 in
14:39 1.2 °F 0.3 °F 1030.0 in SSW 4.8 mph 6.1 mph 94 % 0.0 in
14:44 1.2 °F 0.3 °F 1030.0 in SSW 3.9 mph 6.1 mph 94 % 0.0 in
14:45 1.2 °F 0.3 °F 1030.0 in SSW 3.7 mph 6.1 mph 94 % 0.0 in
14:48 1.1 °F 0.2 °F 1030.0 in SW 2.9 mph 4.7 mph 94 % 0.0 in
14:50 1.1 °F 0.1 °F 1030.0 in SW 2.7 mph 4.3 mph 93 % 0.0 in
14:55 1.0 °F 0.0 °F 1030.0 in SW 2.4 mph 4.3 mph 93 % 0.0 in
14:57 1.0 °F 0.0 °F 1030.0 in SW 2.4 mph 4.3 mph 93 % 0.0 in
15:00 0.8 °F -0.2 °F 1030.0 in SSW 2.6 mph 5.8 mph 93 % 0.0 in
15:05 0.6 °F -0.4 °F 1030.0 in SW 3.4 mph 5.8 mph 93 % 0.0 in
15:10 0.4 °F -0.7 °F 1030.0 in WSW 2.1 mph 5.0 mph 92 % 0.0 in
15:15 0.3 °F -0.8 °F 1030.0 in SSW 0.8 mph 6.9 mph 92 % 0.0 in
15:16 0.3 °F -0.8 °F 1030.0 in SSW 1.0 mph 6.9 mph 92 % 0.0 in
15:21 0.1 °F -1.1 °F 1030.0 in SW 2.9 mph 6.9 mph 92 % 0.0 in
15:22 0.1 °F -1.1 °F 1030.0 in SW 3.1 mph 6.9 mph 92 % 0.0 in
15:27 -0.1 °F -1.4 °F 1030.0 in SSW 0.5 mph 3.5 mph 91 % 0.0 in
15:28 0.0 °F -1.4 °F 1030.0 in SSW 1.1 mph 3.5 mph 0 % 0.0 in
15:33 -0.5 °F -1.8 °F 1030.0 in NW 0.2 mph 3.2 mph 91 % 0.0 in
15:37 -0.6 °F -2.1 °F 1030.0 in NW 1.1 mph 4.3 mph 90 % 0.0 in
15:42 -0.8 °F -2.2 °F 1030.0 in NW 1.4 mph 4.3 mph 90 % 0.0 in
15:43 -0.8 °F -2.2 °F 1030.0 in NW 1.4 mph 4.3 mph 90 % 0.0 in
15:48 -1.0 °F -2.4 °F 1030.0 in NW 0.2 mph 1.8 mph 90 % 0.0 in
15:51 -1.0 °F -2.4 °F 1030.0 in Calm     90 % 0.0 in
15:53 -1.1 °F -2.6 °F 1030.0 in Calm     90 % 0.0 in
15:58 -1.3 °F -2.7 °F 1030.0 in NW 0.3 mph 4.3 mph 90 % 0.0 in
16:02 -1.4 °F -2.8 °F 1029.0 in NW 1.3 mph 4.7 mph 90 % 0.0 in
16:06 -1.5 °F -2.9 °F 1029.0 in NW 3.1 mph 4.7 mph 90 % 0.0 in
16:09 -1.6 °F -3.0 °F 1029.0 in NW 3.1 mph 4.7 mph 90 % 0.0 in
16:14 -1.8 °F -3.4 °F 1029.0 in NW 1.4 mph 4.7 mph 89 % 0.0 in
16:17 -1.9 °F -3.4 °F 1029.0 in NW 0.6 mph 4.7 mph 89 % 0.0 in
16:22 -2.0 °F -3.4 °F 1029.0 in NW 0.3 mph 5.0 mph 90 % 0.0 in
16:23 -2.0 °F -3.4 °F 1029.0 in NW 0.8 mph 5.0 mph 90 % 0.0 in
16:29 -2.2 °F -3.8 °F 1029.0 in NW 2.1 mph 5.0 mph 89 % 0.0 in
16:34 -2.3 °F -3.9 °F 1029.0 in NW 1.1 mph 5.0 mph 89 % 0.0 in
16:35 -2.3 °F -3.9 °F 1029.0 in NW 0.8 mph 3.5 mph 89 % 0.0 in
16:40 -2.4 °F -3.9 °F 1029.0 in NW 0.2 mph 2.1 mph 89 % 0.0 in
16:41 -2.4 °F -3.9 °F 1029.0 in NW 0.2 mph 2.1 mph 89 % 0.0 in
16:45 -2.5 °F -4.1 °F 1029.0 in Calm     89 % 0.0 in
16:48 -2.6 °F -4.2 °F 1029.0 in Calm     89 % 0.0 in
16:52 -2.7 °F -4.3 °F 1029.0 in Calm     89 % 0.0 in
16:55 -2.8 °F -4.3 °F 1029.0 in Calm     89 % 0.0 in
16:57 -2.8 °F -4.3 °F 1029.0 in Calm     89 % 0.0 in
17:07 -2.9 °F -4.4 °F 1029.0 in NW 1.4 mph 4.3 mph 89 % 0.0 in
17:12 -3.0 °F -4.6 °F 1029.0 in Calm     89 % 0.0 in
17:13 -3.1 °F -4.7 °F 1029.0 in Calm     89 % 0.0 in
17:18 -3.2 °F -4.8 °F 1030.0 in Calm     89 % 0.0 in
17:19 -3.2 °F -4.8 °F 1030.0 in Calm     89 % 0.0 in
17:24 -3.3 °F -4.8 °F 1030.0 in Calm     89 % 0.0 in
17:25 -3.3 °F -4.8 °F 1030.0 in Calm     89 % 0.0 in
17:33 -3.3 °F -4.8 °F 1029.0 in NNW 0.3 mph 3.5 mph 89 % 0.0 in
17:38 -3.4 °F -4.9 °F 1029.0 in NNW 1.4 mph 3.5 mph 89 % 0.0 in
17:41 -3.4 °F -4.9 °F 1029.0 in NNW 1.6 mph 3.5 mph 89 % 0.0 in
17:44 -3.5 °F -5.1 °F 1030.0 in NNW 1.1 mph 3.5 mph 89 % 0.0 in
17:49 0.0 °F -5.1 °F 0.0 in North 0.8 mph   0 % 0.0 in
17:52 -3.6 °F -5.2 °F 1030.0 in Calm     89 % 0.0 in
17:57 -3.7 °F -5.2 °F 1030.0 in WNW 1.1 mph 4.3 mph 89 % 0.0 in
17:59 -3.7 °F -5.2 °F 1029.0 in WNW 1.4 mph 4.7 mph 89 % 0.0 in
18:03 -3.7 °F -5.2 °F 1029.0 in West 2.9 mph 4.7 mph 89 % 0.0 in
18:05 -3.7 °F -5.2 °F 1029.0 in West 2.7 mph 4.7 mph 89 % 0.0 in
18:09 -3.7 °F -5.2 °F 1029.0 in WSW 1.6 mph 4.7 mph 89 % 0.0 in
18:14 -3.8 °F -5.3 °F 1030.0 in Calm     89 % 0.0 in
18:16 -3.9 °F -5.4 °F 1030.0 in Calm     89 % 0.0 in
18:21 -3.9 °F -5.4 °F 1030.0 in Calm     89 % 0.0 in
18:26 -4.0 °F -5.6 °F 1030.0 in Calm     89 % 0.0 in
18:31 -4.1 °F -5.7 °F 1030.0 in Calm     89 % 0.0 in
18:32 -4.1 °F -5.7 °F 1030.0 in Calm     89 % 0.0 in
18:37 -4.2 °F -5.7 °F 1030.0 in Calm     89 % 0.0 in
18:40 -4.2 °F -5.7 °F 1030.0 in Calm     89 % 0.0 in
18:45 -4.3 °F -5.8 °F 1030.0 in Calm     89 % 0.0 in
18:50 -4.3 °F -5.8 °F 1030.0 in Calm     89 % 0.0 in
18:51 -4.3 °F -5.8 °F 1030.0 in Calm     89 % 0.0 in
18:53 -4.3 °F -5.8 °F 1030.0 in Calm     89 % 0.0 in
18:58 -4.4 °F -5.9 °F 1030.0 in Calm     89 % 0.0 in
18:59 -4.4 °F -5.9 °F 1030.0 in Calm     89 % 0.0 in
19:04 -4.5 °F -6.1 °F 1030.0 in Calm     89 % 0.0 in
19:05 -4.5 °F -6.1 °F 1030.0 in Calm     89 % 0.0 in
19:07 -4.5 °F -6.1 °F 1030.0 in Calm     89 % 0.0 in
19:11 -4.5 °F -6.1 °F 1030.0 in Calm     89 % 0.0 in
19:16 -4.6 °F -6.1 °F 1031.0 in Calm     89 % 0.0 in
19:17 -4.6 °F -6.1 °F 1031.0 in Calm     89 % 0.0 in
19:18 -4.6 °F -6.1 °F 1031.0 in Calm     89 % 0.0 in
19:23 -4.7 °F -6.2 °F 1031.0 in Calm     89 % 0.0 in
19:28 -4.6 °F -6.1 °F 1031.0 in Calm     89 % 0.0 in
19:30 -4.7 °F -6.2 °F 1031.0 in Calm     89 % 0.0 in
19:31 -4.6 °F -6.1 °F 1031.0 in Calm     89 % 0.0 in
19:36 -4.7 °F -6.2 °F 1031.0 in Calm     89 % 0.0 in
19:38 -4.7 °F -6.2 °F 1031.0 in Calm     89 % 0.0 in
19:43 -4.7 °F -6.2 °F 1031.0 in Calm     89 % 0.0 in
19:44 -4.7 °F -6.2 °F 1031.0 in Calm     89 % 0.0 in
19:46 -4.7 °F -6.2 °F 1031.0 in Calm     89 % 0.0 in
19:51 -4.6 °F -6.1 °F 1031.0 in Calm     89 % 0.0 in
19:52 -4.6 °F -6.1 °F 1031.0 in Calm     89 % 0.0 in
19:57 -4.6 °F -6.1 °F 1031.0 in Calm     89 % 0.0 in
19:58 -4.6 °F -6.1 °F 1031.0 in Calm     89 % 0.0 in
20:00 -4.6 °F -6.1 °F 1031.0 in Calm     89 % 0.0 in
20:03 -4.5 °F -6.1 °F 1031.0 in Calm   3.2 mph 89 % 0.0 in
20:08 -4.5 °F -6.1 °F 1031.0 in Calm     89 % 0.0 in
20:13 -4.5 °F -6.1 °F 1031.0 in Calm     89 % 0.0 in
20:16 -4.5 °F -5.9 °F 1032.1 in Calm     90 % 0.0 in
20:21 -4.5 °F -5.9 °F 1032.1 in Calm     90 % 0.0 in
20:23 -4.5 °F -5.9 °F 1032.1 in Calm     90 % 0.0 in
20:28 -4.5 °F -5.9 °F 1032.1 in Calm     90 % 0.0 in
20:30 -4.5 °F -5.9 °F 1032.1 in Calm     90 % 0.0 in
20:33 -4.5 °F -5.9 °F 1032.1 in Calm     90 % 0.0 in
20:36 -4.5 °F -5.9 °F 1032.1 in Calm     90 % 0.0 in
20:41 -4.4 °F -5.8 °F 1032.1 in Calm     90 % 0.0 in
20:46 -4.4 °F -5.8 °F 1031.0 in Calm     90 % 0.0 in
20:49 -4.4 °F -5.8 °F 1031.0 in Calm     90 % 0.0 in
20:54 -4.4 °F -5.8 °F 1031.0 in Calm     90 % 0.0 in
20:59 -4.3 °F -5.7 °F 1031.0 in Calm     90 % 0.0 in
21:04 -4.3 °F -5.7 °F 1031.0 in Calm     90 % 0.0 in
21:06 -4.3 °F -5.7 °F 1031.0 in Calm     90 % 0.0 in
21:12 -4.2 °F -5.6 °F 1031.0 in Calm     90 % 0.0 in
21:13 -4.2 °F -5.6 °F 1031.0 in Calm     90 % 0.0 in
21:17 -4.2 °F -5.6 °F 1031.0 in Calm     90 % 0.0 in
21:18 -4.2 °F -5.6 °F 1031.0 in Calm     90 % 0.0 in
21:23 -4.2 °F -5.6 °F 1031.0 in Calm     90 % 0.0 in
21:25 -4.2 °F -5.6 °F 1031.0 in Calm     90 % 0.0 in
21:31 -4.2 °F -5.6 °F 1031.0 in Calm     90 % 0.0 in
21:35 -4.2 °F -5.6 °F 1031.0 in Calm     90 % 0.0 in
21:37 -4.2 °F -5.6 °F 1031.0 in Calm     90 % 0.0 in
21:42 -4.2 °F -5.4 °F 1031.0 in Calm     91 % 0.0 in
21:47 -4.1 °F -5.3 °F 1030.0 in Calm     91 % 0.0 in
21:48 -4.1 °F -5.3 °F 1030.0 in Calm     91 % 0.0 in
21:53 -4.2 °F -5.4 °F 1030.0 in Calm     91 % 0.0 in
21:54 -4.2 °F -5.4 °F 1030.0 in Calm     91 % 0.0 in
21:58 -4.2 °F -5.4 °F 1030.0 in Calm     91 % 0.0 in
22:03 -4.2 °F -5.4 °F 1031.0 in Calm     91 % 0.0 in
22:08 -4.2 °F -5.4 °F 1031.0 in Calm     91 % 0.0 in
22:11 -4.2 °F -5.4 °F 1031.0 in Calm     91 % 0.0 in
22:16 -4.2 °F -5.4 °F 1030.0 in Calm     91 % 0.0 in
22:18 -4.2 °F -5.4 °F 1030.0 in Calm     91 % 0.0 in
22:20 -4.2 °F -5.4 °F 1030.0 in Calm     91 % 0.0 in
22:25 -4.2 °F -5.4 °F 0.0 in Calm     91 % 0.0 in
22:27 -4.2 °F -5.4 °F 1030.0 in Calm     91 % 0.0 in
22:28 -4.3 °F -5.6 °F 1030.0 in Calm   2.1 mph 91 % 0.0 in
22:33 -4.3 °F -5.6 °F 1030.0 in Calm   2.1 mph 91 % 0.0 in
22:37 -4.3 °F -5.6 °F 1030.0 in Calm   2.1 mph 91 % 0.0 in
22:40 -4.4 °F -5.7 °F 1030.0 in Calm     91 % 0.0 in
22:45 -4.4 °F -5.7 °F 1030.0 in Calm     91 % 0.0 in
22:50 -4.4 °F -5.7 °F 1030.0 in NNW 0.3 mph 3.2 mph 91 % 0.0 in
22:55 -4.4 °F -5.7 °F 1030.0 in NNW 0.3 mph 3.2 mph 91 % 0.0 in
22:56 -4.5 °F -5.7 °F 1030.0 in NNW 0.3 mph 3.2 mph 91 % 0.0 in
23:01 -4.5 °F -5.7 °F 1030.0 in Calm     91 % 0.0 in
23:04 -4.5 °F -5.7 °F 1030.0 in Calm     91 % 0.0 in
23:08 -4.5 °F -5.7 °F 1030.0 in Calm     91 % 0.0 in
23:13 -4.5 °F -5.7 °F 1030.0 in NNW 0.6 mph 4.0 mph 91 % 0.0 in
23:14 -4.5 °F -5.7 °F 1030.0 in NNW 0.6 mph 4.0 mph 91 % 0.0 in
23:19 -4.5 °F -5.7 °F 1030.0 in NNW 0.6 mph 4.0 mph 91 % 0.0 in
23:22 -4.5 °F -5.7 °F 1030.0 in NNW 0.2 mph 3.2 mph 91 % 0.0 in
23:26 -4.4 °F -5.7 °F 1030.0 in Calm   1.4 mph 91 % 0.0 in
23:29 -4.4 °F -5.7 °F 1030.0 in Calm   1.4 mph 91 % 0.0 in
23:31 -4.4 °F -5.7 °F 1030.0 in Calm   1.4 mph 91 % 0.0 in
23:36 -4.3 °F -5.6 °F 1030.0 in Calm     91 % 0.0 in
23:37 -4.3 °F -5.6 °F 1030.0 in Calm     91 % 0.0 in
23:42 -4.3 °F -5.6 °F 1030.0 in Calm     91 % 0.0 in
23:47 -4.3 °F -5.6 °F 1030.0 in Calm     91 % 0.0 in
23:48 -4.3 °F -5.6 °F 1030.0 in Calm     91 % 0.0 in
23:53 -4.2 °F -5.4 °F 1030.0 in Calm     91 % 0.0 in
23:54 -4.2 °F -5.4 °F 1030.0 in Calm     91 % 0.0 in
23:59 -4.2 °F -5.4 °F 1031.0 in Calm     91 % 0.0 in
Vremenska postaja Senovo
Podatki zbrani iz Weather Underground - 3.75 mb

Script developed by  Jim McMurry - jmcmurry@mwt.net Adapted for the template by  Wim van der Kuil - Leuven-Template.eu

Vremenski podatki so objavljeni na:

European Weather Network

WeatherCloud

Weather Underground

AWEKAS

HAMweather, WeatherForYou, PWS Weather

MapView

Geostik

Slovenia weather network

Oprema, ki se uporablja:

Vremenski program
Cumulus

Vremenski server
Asus

Cumulus

Asus